sensor_id;sensor_type;location;lat;lon;timestamp;temperature;humidity
8340;DHT22;4207;49.314;7.162;2023-05-29T00:02:22;13.80;93.20
8340;DHT22;4207;49.314;7.162;2023-05-29T00:04:50;13.80;93.30
8340;DHT22;4207;49.314;7.162;2023-05-29T00:07:18;13.80;93.40
8340;DHT22;4207;49.314;7.162;2023-05-29T00:09:48;13.70;93.40
8340;DHT22;4207;49.314;7.162;2023-05-29T00:12:16;13.80;93.50
8340;DHT22;4207;49.314;7.162;2023-05-29T00:14:45;13.70;93.60
8340;DHT22;4207;49.314;7.162;2023-05-29T00:17:13;14.20;93.90
8340;DHT22;4207;49.314;7.162;2023-05-29T00:19:43;13.70;93.70
8340;DHT22;4207;49.314;7.162;2023-05-29T00:22:11;13.70;93.80
8340;DHT22;4207;49.314;7.162;2023-05-29T00:24:39;13.60;93.80
8340;DHT22;4207;49.314;7.162;2023-05-29T00:27:08;13.60;94.00
8340;DHT22;4207;49.314;7.162;2023-05-29T00:29:37;13.60;93.90
8340;DHT22;4207;49.314;7.162;2023-05-29T00:32:06;13.60;94.00
8340;DHT22;4207;49.314;7.162;2023-05-29T00:34:34;13.50;94.20
8340;DHT22;4207;49.314;7.162;2023-05-29T00:37:02;13.60;94.30
8340;DHT22;4207;49.314;7.162;2023-05-29T00:39:31;13.50;94.20
8340;DHT22;4207;49.314;7.162;2023-05-29T00:41:59;13.90;94.50
8340;DHT22;4207;49.314;7.162;2023-05-29T00:44:28;13.30;94.30
8340;DHT22;4207;49.314;7.162;2023-05-29T00:46:57;13.50;94.40
8340;DHT22;4207;49.314;7.162;2023-05-29T00:49:26;13.50;94.80
8340;DHT22;4207;49.314;7.162;2023-05-29T00:51:54;13.80;94.50
8340;DHT22;4207;49.314;7.162;2023-05-29T00:54:26;13.60;94.50
8340;DHT22;4207;49.314;7.162;2023-05-29T00:56:55;13.60;94.50
8340;DHT22;4207;49.314;7.162;2023-05-29T00:59:26;13.60;94.60
8340;DHT22;4207;49.314;7.162;2023-05-29T01:01:56;13.50;94.60
8340;DHT22;4207;49.314;7.162;2023-05-29T01:04:26;13.70;94.80
8340;DHT22;4207;49.314;7.162;2023-05-29T01:06:54;13.30;95.00
8340;DHT22;4207;49.314;7.162;2023-05-29T01:09:24;13.30;94.90
8340;DHT22;4207;49.314;7.162;2023-05-29T01:11:59;13.30;95.00
8340;DHT22;4207;49.314;7.162;2023-05-29T01:14:38;13.30;95.10
8340;DHT22;4207;49.314;7.162;2023-05-29T01:17:14;13.20;95.20
8340;DHT22;4207;49.314;7.162;2023-05-29T01:20:02;13.20;95.20
8340;DHT22;4207;49.314;7.162;2023-05-29T01:22:51;13.20;95.20
8340;DHT22;4207;49.314;7.162;2023-05-29T01:25:24;13.30;95.10
8340;DHT22;4207;49.314;7.162;2023-05-29T01:28:00;13.30;95.00
8340;DHT22;4207;49.314;7.162;2023-05-29T01:30:30;13.30;94.90
8340;DHT22;4207;49.314;7.162;2023-05-29T01:32:59;13.30;94.80
8340;DHT22;4207;49.314;7.162;2023-05-29T01:35:29;13.40;94.70
8340;DHT22;4207;49.314;7.162;2023-05-29T01:37:57;13.40;94.70
8340;DHT22;4207;49.314;7.162;2023-05-29T01:40:25;13.30;94.60
8340;DHT22;4207;49.314;7.162;2023-05-29T01:42:53;13.30;94.80
8340;DHT22;4207;49.314;7.162;2023-05-29T01:45:23;13.30;94.90
8340;DHT22;4207;49.314;7.162;2023-05-29T01:47:53;13.30;95.00
8340;DHT22;4207;49.314;7.162;2023-05-29T01:50:22;13.30;95.10
8340;DHT22;4207;49.314;7.162;2023-05-29T01:52:51;13.20;95.30
8340;DHT22;4207;49.314;7.162;2023-05-29T01:55:19;13.10;95.40
8340;DHT22;4207;49.314;7.162;2023-05-29T01:57:48;13.10;95.60
8340;DHT22;4207;49.314;7.162;2023-05-29T02:00:18;13.00;95.80
8340;DHT22;4207;49.314;7.162;2023-05-29T02:02:48;13.00;96.20
8340;DHT22;4207;49.314;7.162;2023-05-29T02:05:16;12.90;96.40
8340;DHT22;4207;49.314;7.162;2023-05-29T02:07:45;12.80;96.60
8340;DHT22;4207;49.314;7.162;2023-05-29T02:10:13;12.80;96.70
8340;DHT22;4207;49.314;7.162;2023-05-29T02:12:41;12.80;96.80
8340;DHT22;4207;49.314;7.162;2023-05-29T02:15:10;12.80;96.90
8340;DHT22;4207;49.314;7.162;2023-05-29T02:17:39;12.80;97.10
8340;DHT22;4207;49.314;7.162;2023-05-29T02:20:10;12.80;97.10
8340;DHT22;4207;49.314;7.162;2023-05-29T02:22:39;12.80;97.10
8340;DHT22;4207;49.314;7.162;2023-05-29T02:25:09;12.80;97.30
8340;DHT22;4207;49.314;7.162;2023-05-29T02:27:37;12.70;97.30
8340;DHT22;4207;49.314;7.162;2023-05-29T02:30:07;12.70;97.30
8340;DHT22;4207;49.314;7.162;2023-05-29T02:32:35;12.60;97.30
8340;DHT22;4207;49.314;7.162;2023-05-29T02:35:05;12.60;97.50
8340;DHT22;4207;49.314;7.162;2023-05-29T02:37:36;12.70;97.70
8340;DHT22;4207;49.314;7.162;2023-05-29T02:40:05;12.60;97.60
8340;DHT22;4207;49.314;7.162;2023-05-29T02:42:37;12.60;97.80
8340;DHT22;4207;49.314;7.162;2023-05-29T02:45:06;12.60;97.90
8340;DHT22;4207;49.314;7.162;2023-05-29T02:47:35;12.60;98.30
8340;DHT22;4207;49.314;7.162;2023-05-29T02:50:05;12.70;98.00
8340;DHT22;4207;49.314;7.162;2023-05-29T02:52:33;12.70;98.00
8340;DHT22;4207;49.314;7.162;2023-05-29T02:55:03;12.70;98.00
8340;DHT22;4207;49.314;7.162;2023-05-29T02:57:32;12.60;97.90
8340;DHT22;4207;49.314;7.162;2023-05-29T03:00:01;12.50;97.90
8340;DHT22;4207;49.314;7.162;2023-05-29T03:02:31;12.50;98.00
8340;DHT22;4207;49.314;7.162;2023-05-29T03:04:59;12.50;98.10
8340;DHT22;4207;49.314;7.162;2023-05-29T03:07:27;12.50;98.20
8340;DHT22;4207;49.314;7.162;2023-05-29T03:09:56;12.50;98.50
8340;DHT22;4207;49.314;7.162;2023-05-29T03:12:27;12.50;98.40
8340;DHT22;4207;49.314;7.162;2023-05-29T03:14:56;12.40;98.40
8340;DHT22;4207;49.314;7.162;2023-05-29T03:17:26;12.40;98.50
8340;DHT22;4207;49.314;7.162;2023-05-29T03:19:55;12.30;98.50
8340;DHT22;4207;49.314;7.162;2023-05-29T03:22:24;12.40;98.60
8340;DHT22;4207;49.314;7.162;2023-05-29T03:24:52;12.30;98.60
8340;DHT22;4207;49.314;7.162;2023-05-29T03:27:21;12.30;98.70
8340;DHT22;4207;49.314;7.162;2023-05-29T03:30:00;12.30;98.70
8340;DHT22;4207;49.314;7.162;2023-05-29T03:32:30;12.30;98.60
8340;DHT22;4207;49.314;7.162;2023-05-29T03:34:59;12.40;98.70
8340;DHT22;4207;49.314;7.162;2023-05-29T03:37:28;12.40;98.60
8340;DHT22;4207;49.314;7.162;2023-05-29T03:39:56;12.40;98.60
8340;DHT22;4207;49.314;7.162;2023-05-29T03:42:24;12.40;98.60
8340;DHT22;4207;49.314;7.162;2023-05-29T03:44:52;12.40;98.70
8340;DHT22;4207;49.314;7.162;2023-05-29T03:47:24;12.40;98.70
8340;DHT22;4207;49.314;7.162;2023-05-29T03:49:54;12.40;98.90
8340;DHT22;4207;49.314;7.162;2023-05-29T03:52:22;12.40;98.90
8340;DHT22;4207;49.314;7.162;2023-05-29T03:54:52;12.40;98.90
8340;DHT22;4207;49.314;7.162;2023-05-29T03:57:20;12.50;99.00
8340;DHT22;4207;49.314;7.162;2023-05-29T03:59:49;12.50;99.00
8340;DHT22;4207;49.314;7.162;2023-05-29T04:02:17;12.50;98.90
8340;DHT22;4207;49.314;7.162;2023-05-29T04:04:47;12.60;98.90
8340;DHT22;4207;49.314;7.162;2023-05-29T04:07:16;12.70;99.10
8340;DHT22;4207;49.314;7.162;2023-05-29T04:09:45;12.80;99.10
8340;DHT22;4207;49.314;7.162;2023-05-29T04:12:13;12.90;98.60
8340;DHT22;4207;49.314;7.162;2023-05-29T04:14:42;13.00;98.20
8340;DHT22;4207;49.314;7.162;2023-05-29T04:17:12;13.10;98.20
8340;DHT22;4207;49.314;7.162;2023-05-29T04:19:42;13.20;97.90
8340;DHT22;4207;49.314;7.162;2023-05-29T04:22:12;13.20;97.80
8340;DHT22;4207;49.314;7.162;2023-05-29T04:24:41;13.30;97.80
8340;DHT22;4207;49.314;7.162;2023-05-29T04:27:09;13.40;97.40
8340;DHT22;4207;49.314;7.162;2023-05-29T04:29:40;13.50;97.20
8340;DHT22;4207;49.314;7.162;2023-05-29T04:32:09;13.60;97.10
8340;DHT22;4207;49.314;7.162;2023-05-29T04:34:38;13.60;96.80
8340;DHT22;4207;49.314;7.162;2023-05-29T04:37:07;13.70;96.70
8340;DHT22;4207;49.314;7.162;2023-05-29T04:39:39;13.80;96.30
8340;DHT22;4207;49.314;7.162;2023-05-29T04:42:08;13.90;96.40
8340;DHT22;4207;49.314;7.162;2023-05-29T04:44:36;13.90;96.30
8340;DHT22;4207;49.314;7.162;2023-05-29T04:47:05;14.00;96.30
8340;DHT22;4207;49.314;7.162;2023-05-29T04:49:34;14.00;96.10
8340;DHT22;4207;49.314;7.162;2023-05-29T04:52:05;14.10;96.10
8340;DHT22;4207;49.314;7.162;2023-05-29T04:54:34;14.10;95.80
8340;DHT22;4207;49.314;7.162;2023-05-29T04:57:04;14.20;95.60
8340;DHT22;4207;49.314;7.162;2023-05-29T04:59:34;14.20;95.90
8340;DHT22;4207;49.314;7.162;2023-05-29T05:02:02;14.30;95.80
8340;DHT22;4207;49.314;7.162;2023-05-29T05:04:31;14.30;95.60
8340;DHT22;4207;49.314;7.162;2023-05-29T05:06:59;14.30;95.10
8340;DHT22;4207;49.314;7.162;2023-05-29T05:09:27;14.40;95.40
8340;DHT22;4207;49.314;7.162;2023-05-29T05:11:55;14.50;95.20
8340;DHT22;4207;49.314;7.162;2023-05-29T05:14:25;14.50;95.00
8340;DHT22;4207;49.314;7.162;2023-05-29T05:16:56;14.60;94.90
8340;DHT22;4207;49.314;7.162;2023-05-29T05:19:25;14.60;94.90
8340;DHT22;4207;49.314;7.162;2023-05-29T05:21:53;14.70;95.10
8340;DHT22;4207;49.314;7.162;2023-05-29T05:24:23;14.70;94.80
8340;DHT22;4207;49.314;7.162;2023-05-29T05:26:51;14.80;94.80
8340;DHT22;4207;49.314;7.162;2023-05-29T05:29:19;14.90;94.80
8340;DHT22;4207;49.314;7.162;2023-05-29T05:31:49;14.90;94.50
8340;DHT22;4207;49.314;7.162;2023-05-29T05:34:17;15.00;94.60
8340;DHT22;4207;49.314;7.162;2023-05-29T05:36:46;15.00;94.90
8340;DHT22;4207;49.314;7.162;2023-05-29T05:39:16;15.10;94.50
8340;DHT22;4207;49.314;7.162;2023-05-29T05:41:46;15.20;94.70
8340;DHT22;4207;49.314;7.162;2023-05-29T05:44:24;15.20;94.30
8340;DHT22;4207;49.314;7.162;2023-05-29T05:47:00;15.30;94.40
8340;DHT22;4207;49.314;7.162;2023-05-29T05:49:28;15.30;94.40
8340;DHT22;4207;49.314;7.162;2023-05-29T05:51:56;15.40;94.80
8340;DHT22;4207;49.314;7.162;2023-05-29T05:54:25;15.50;94.70
8340;DHT22;4207;49.314;7.162;2023-05-29T05:56:53;15.50;94.20
8340;DHT22;4207;49.314;7.162;2023-05-29T05:59:21;15.60;94.30
8340;DHT22;4207;49.314;7.162;2023-05-29T06:01:49;15.70;94.40
8340;DHT22;4207;49.314;7.162;2023-05-29T06:04:20;15.70;94.30
8340;DHT22;4207;49.314;7.162;2023-05-29T06:06:48;15.80;93.90
8340;DHT22;4207;49.314;7.162;2023-05-29T06:09:16;15.90;94.20
8340;DHT22;4207;49.314;7.162;2023-05-29T06:11:44;16.00;94.00
8340;DHT22;4207;49.314;7.162;2023-05-29T06:14:14;16.00;93.30
8340;DHT22;4207;49.314;7.162;2023-05-29T06:16:43;16.10;93.70
8340;DHT22;4207;49.314;7.162;2023-05-29T06:19:13;16.20;93.60
8340;DHT22;4207;49.314;7.162;2023-05-29T06:21:54;16.30;93.00
8340;DHT22;4207;49.314;7.162;2023-05-29T06:24:22;16.40;93.00
8340;DHT22;4207;49.314;7.162;2023-05-29T06:26:50;16.50;93.10
8340;DHT22;4207;49.314;7.162;2023-05-29T06:29:19;16.60;93.30
8340;DHT22;4207;49.314;7.162;2023-05-29T06:31:47;16.70;92.20
8340;DHT22;4207;49.314;7.162;2023-05-29T06:34:16;16.80;91.80
8340;DHT22;4207;49.314;7.162;2023-05-29T06:36:44;16.90;91.90
8340;DHT22;4207;49.314;7.162;2023-05-29T06:39:14;17.00;91.60
8340;DHT22;4207;49.314;7.162;2023-05-29T06:41:42;17.10;90.70
8340;DHT22;4207;49.314;7.162;2023-05-29T06:44:17;17.10;90.20
8340;DHT22;4207;49.314;7.162;2023-05-29T06:46:45;17.10;90.50
8340;DHT22;4207;49.314;7.162;2023-05-29T06:49:13;17.20;89.40
8340;DHT22;4207;49.314;7.162;2023-05-29T06:51:41;17.30;90.10
8340;DHT22;4207;49.314;7.162;2023-05-29T06:54:46;17.30;90.80
8340;DHT22;4207;49.314;7.162;2023-05-29T06:57:14;17.60;90.70
8340;DHT22;4207;49.314;7.162;2023-05-29T06:59:43;18.10;89.70
8340;DHT22;4207;49.314;7.162;2023-05-29T07:02:12;19.00;85.80
8340;DHT22;4207;49.314;7.162;2023-05-29T07:04:40;19.80;82.60
8340;DHT22;4207;49.314;7.162;2023-05-29T07:07:08;19.70;82.50
8340;DHT22;4207;49.314;7.162;2023-05-29T07:09:36;19.50;82.40
8340;DHT22;4207;49.314;7.162;2023-05-29T07:12:07;19.60;80.50
8340;DHT22;4207;49.314;7.162;2023-05-29T07:14:36;19.40;82.50
8340;DHT22;4207;49.314;7.162;2023-05-29T07:17:04;18.90;84.60
8340;DHT22;4207;49.314;7.162;2023-05-29T07:19:33;18.60;86.60
8340;DHT22;4207;49.314;7.162;2023-05-29T07:22:04;18.40;87.50
8340;DHT22;4207;49.314;7.162;2023-05-29T07:24:32;18.20;87.10
8340;DHT22;4207;49.314;7.162;2023-05-29T07:27:03;18.00;86.70
8340;DHT22;4207;49.314;7.162;2023-05-29T07:29:33;17.80;87.50
8340;DHT22;4207;49.314;7.162;2023-05-29T07:32:02;17.70;87.30
8340;DHT22;4207;49.314;7.162;2023-05-29T07:34:30;17.80;86.60
8340;DHT22;4207;49.314;7.162;2023-05-29T07:37:00;17.70;88.10
8340;DHT22;4207;49.314;7.162;2023-05-29T07:39:31;17.70;88.20
8340;DHT22;4207;49.314;7.162;2023-05-29T07:42:04;17.70;87.20
8340;DHT22;4207;49.314;7.162;2023-05-29T07:44:35;17.80;87.90
8340;DHT22;4207;49.314;7.162;2023-05-29T07:47:04;17.80;86.20
8340;DHT22;4207;49.314;7.162;2023-05-29T07:49:39;17.80;87.80
8340;DHT22;4207;49.314;7.162;2023-05-29T07:52:09;17.80;87.50
8340;DHT22;4207;49.314;7.162;2023-05-29T07:54:37;17.90;89.70
8340;DHT22;4207;49.314;7.162;2023-05-29T07:57:08;17.90;88.70
8340;DHT22;4207;49.314;7.162;2023-05-29T07:59:41;18.00;87.60
8340;DHT22;4207;49.314;7.162;2023-05-29T08:02:10;18.10;87.70
8340;DHT22;4207;49.314;7.162;2023-05-29T08:04:51;18.10;88.30
8340;DHT22;4207;49.314;7.162;2023-05-29T08:07:20;18.20;88.40
8340;DHT22;4207;49.314;7.162;2023-05-29T08:09:48;18.30;88.30
8340;DHT22;4207;49.314;7.162;2023-05-29T08:12:17;18.40;89.10
8340;DHT22;4207;49.314;7.162;2023-05-29T08:14:48;18.50;90.10
8340;DHT22;4207;49.314;7.162;2023-05-29T08:17:16;18.60;88.90
8340;DHT22;4207;49.314;7.162;2023-05-29T08:19:44;18.70;87.40
8340;DHT22;4207;49.314;7.162;2023-05-29T08:22:14;18.80;86.00
8340;DHT22;4207;49.314;7.162;2023-05-29T08:24:42;18.90;87.90
8340;DHT22;4207;49.314;7.162;2023-05-29T08:27:10;19.00;88.20
8340;DHT22;4207;49.314;7.162;2023-05-29T08:29:38;19.00;87.30
8340;DHT22;4207;49.314;7.162;2023-05-29T08:32:08;19.10;87.90
8340;DHT22;4207;49.314;7.162;2023-05-29T08:34:36;19.20;86.40
8340;DHT22;4207;49.314;7.162;2023-05-29T08:37:05;19.20;85.40
8340;DHT22;4207;49.314;7.162;2023-05-29T08:39:33;19.20;84.50
8340;DHT22;4207;49.314;7.162;2023-05-29T08:42:04;19.30;85.40
8340;DHT22;4207;49.314;7.162;2023-05-29T08:44:35;19.40;85.60
8340;DHT22;4207;49.314;7.162;2023-05-29T08:47:08;19.40;86.70
8340;DHT22;4207;49.314;7.162;2023-05-29T08:49:42;19.50;87.30
8340;DHT22;4207;49.314;7.162;2023-05-29T08:52:15;19.60;84.00
8340;DHT22;4207;49.314;7.162;2023-05-29T08:54:44;19.70;83.40
8340;DHT22;4207;49.314;7.162;2023-05-29T08:57:13;19.70;86.00
8340;DHT22;4207;49.314;7.162;2023-05-29T08:59:47;19.70;84.40
8340;DHT22;4207;49.314;7.162;2023-05-29T09:02:20;19.80;83.50
8340;DHT22;4207;49.314;7.162;2023-05-29T09:04:48;19.80;84.50
8340;DHT22;4207;49.314;7.162;2023-05-29T09:07:17;19.90;86.00
8340;DHT22;4207;49.314;7.162;2023-05-29T09:09:46;19.90;87.10
8340;DHT22;4207;49.314;7.162;2023-05-29T09:12:17;20.00;83.60
8340;DHT22;4207;49.314;7.162;2023-05-29T09:14:45;20.00;85.10
8340;DHT22;4207;49.314;7.162;2023-05-29T09:17:14;20.10;85.40
8340;DHT22;4207;49.314;7.162;2023-05-29T09:19:44;20.20;87.40
8340;DHT22;4207;49.314;7.162;2023-05-29T09:22:15;20.30;85.70
8340;DHT22;4207;49.314;7.162;2023-05-29T09:24:46;20.30;87.00
8340;DHT22;4207;49.314;7.162;2023-05-29T09:27:15;20.30;87.20
8340;DHT22;4207;49.314;7.162;2023-05-29T09:29:45;20.40;83.60
8340;DHT22;4207;49.314;7.162;2023-05-29T09:32:15;20.40;86.50
8340;DHT22;4207;49.314;7.162;2023-05-29T09:34:45;20.50;85.90
8340;DHT22;4207;49.314;7.162;2023-05-29T09:37:13;20.50;86.00
8340;DHT22;4207;49.314;7.162;2023-05-29T09:39:45;20.50;84.00
8340;DHT22;4207;49.314;7.162;2023-05-29T09:42:14;20.50;83.40
8340;DHT22;4207;49.314;7.162;2023-05-29T09:44:45;20.40;85.00
8340;DHT22;4207;49.314;7.162;2023-05-29T09:47:17;20.50;84.20
8340;DHT22;4207;49.314;7.162;2023-05-29T09:49:47;20.50;84.50
8340;DHT22;4207;49.314;7.162;2023-05-29T09:52:21;20.60;85.70
8340;DHT22;4207;49.314;7.162;2023-05-29T09:54:50;20.60;86.20
8340;DHT22;4207;49.314;7.162;2023-05-29T09:57:20;20.70;84.40
8340;DHT22;4207;49.314;7.162;2023-05-29T09:59:52;20.70;83.80
8340;DHT22;4207;49.314;7.162;2023-05-29T10:02:20;20.90;86.30
8340;DHT22;4207;49.314;7.162;2023-05-29T10:04:50;20.90;86.20
8340;DHT22;4207;49.314;7.162;2023-05-29T10:07:25;21.00;85.70
8340;DHT22;4207;49.314;7.162;2023-05-29T10:09:59;21.10;82.50
8340;DHT22;4207;49.314;7.162;2023-05-29T10:12:29;21.20;84.40
8340;DHT22;4207;49.314;7.162;2023-05-29T10:14:59;21.20;81.30
8340;DHT22;4207;49.314;7.162;2023-05-29T10:17:33;21.10;80.30
8340;DHT22;4207;49.314;7.162;2023-05-29T10:20:05;21.10;82.80
8340;DHT22;4207;49.314;7.162;2023-05-29T10:22:36;21.10;83.20
8340;DHT22;4207;49.314;7.162;2023-05-29T10:25:08;21.20;85.80
8340;DHT22;4207;49.314;7.162;2023-05-29T10:27:38;21.20;81.80
8340;DHT22;4207;49.314;7.162;2023-05-29T10:30:09;21.30;82.10
8340;DHT22;4207;49.314;7.162;2023-05-29T10:32:48;21.30;84.30
8340;DHT22;4207;49.314;7.162;2023-05-29T10:35:29;21.30;80.40
8340;DHT22;4207;49.314;7.162;2023-05-29T10:38:09;21.30;81.60
8340;DHT22;4207;49.314;7.162;2023-05-29T10:40:38;21.30;83.40
8340;DHT22;4207;49.314;7.162;2023-05-29T10:43:06;21.30;82.90
8340;DHT22;4207;49.314;7.162;2023-05-29T10:45:50;21.30;83.40
8340;DHT22;4207;49.314;7.162;2023-05-29T10:48:39;21.40;79.90
8340;DHT22;4207;49.314;7.162;2023-05-29T10:51:24;21.50;83.60
8340;DHT22;4207;49.314;7.162;2023-05-29T10:53:53;21.50;84.80
8340;DHT22;4207;49.314;7.162;2023-05-29T10:56:23;21.60;82.10
8340;DHT22;4207;49.314;7.162;2023-05-29T10:58:55;21.70;80.00
8340;DHT22;4207;49.314;7.162;2023-05-29T11:01:24;21.60;79.70
8340;DHT22;4207;49.314;7.162;2023-05-29T11:04:26;21.60;81.90
8340;DHT22;4207;49.314;7.162;2023-05-29T11:06:56;21.70;81.10
8340;DHT22;4207;49.314;7.162;2023-05-29T11:09:29;21.80;80.00
8340;DHT22;4207;49.314;7.162;2023-05-29T11:12:15;21.90;81.60
8340;DHT22;4207;49.314;7.162;2023-05-29T11:14:56;21.90;81.40
8340;DHT22;4207;49.314;7.162;2023-05-29T11:17:32;21.90;80.40
8340;DHT22;4207;49.314;7.162;2023-05-29T11:20:04;22.00;80.60
8340;DHT22;4207;49.314;7.162;2023-05-29T11:22:55;22.00;80.00
8340;DHT22;4207;49.314;7.162;2023-05-29T11:25:25;22.00;81.00
8340;DHT22;4207;49.314;7.162;2023-05-29T11:27:53;22.00;81.10
8340;DHT22;4207;49.314;7.162;2023-05-29T11:30:21;22.10;78.90
8340;DHT22;4207;49.314;7.162;2023-05-29T11:32:52;22.10;80.10
8340;DHT22;4207;49.314;7.162;2023-05-29T11:35:22;22.10;79.60
8340;DHT22;4207;49.314;7.162;2023-05-29T11:37:52;22.10;77.70
8340;DHT22;4207;49.314;7.162;2023-05-29T11:40:21;22.20;81.80
8340;DHT22;4207;49.314;7.162;2023-05-29T11:42:50;22.20;78.00
8340;DHT22;4207;49.314;7.162;2023-05-29T11:45:20;22.30;77.20
8340;DHT22;4207;49.314;7.162;2023-05-29T11:48:02;22.30;77.30
8340;DHT22;4207;49.314;7.162;2023-05-29T11:50:32;22.30;77.10
8340;DHT22;4207;49.314;7.162;2023-05-29T11:53:02;22.40;78.30
8340;DHT22;4207;49.314;7.162;2023-05-29T11:55:31;22.40;75.20
8340;DHT22;4207;49.314;7.162;2023-05-29T11:58:00;22.40;76.30
8340;DHT22;4207;49.314;7.162;2023-05-29T12:00:31;22.40;77.10
8340;DHT22;4207;49.314;7.162;2023-05-29T12:03:00;22.50;75.70
8340;DHT22;4207;49.314;7.162;2023-05-29T12:05:31;22.50;76.80
8340;DHT22;4207;49.314;7.162;2023-05-29T12:08:01;22.60;74.30
8340;DHT22;4207;49.314;7.162;2023-05-29T12:10:31;22.60;74.60
8340;DHT22;4207;49.314;7.162;2023-05-29T12:13:00;22.60;72.60
8340;DHT22;4207;49.314;7.162;2023-05-29T12:15:28;22.60;74.10
8340;DHT22;4207;49.314;7.162;2023-05-29T12:17:57;22.60;74.60
8340;DHT22;4207;49.314;7.162;2023-05-29T12:20:25;22.70;75.40
8340;DHT22;4207;49.314;7.162;2023-05-29T12:22:59;22.70;73.40
8340;DHT22;4207;49.314;7.162;2023-05-29T12:25:34;22.80;73.40
8340;DHT22;4207;49.314;7.162;2023-05-29T12:28:04;22.80;70.00
8340;DHT22;4207;49.314;7.162;2023-05-29T12:30:37;22.80;73.00
8340;DHT22;4207;49.314;7.162;2023-05-29T12:33:07;22.90;73.40
8340;DHT22;4207;49.314;7.162;2023-05-29T12:35:35;22.90;74.00
8340;DHT22;4207;49.314;7.162;2023-05-29T12:38:05;22.90;72.40
8340;DHT22;4207;49.314;7.162;2023-05-29T12:40:37;23.00;71.60
8340;DHT22;4207;49.314;7.162;2023-05-29T12:43:07;23.00;68.90
8340;DHT22;4207;49.314;7.162;2023-05-29T12:45:35;23.00;70.80
8340;DHT22;4207;49.314;7.162;2023-05-29T12:48:05;23.00;68.40
8340;DHT22;4207;49.314;7.162;2023-05-29T12:50:35;22.90;69.20
8340;DHT22;4207;49.314;7.162;2023-05-29T12:53:05;23.00;68.50
8340;DHT22;4207;49.314;7.162;2023-05-29T12:55:35;22.90;69.70
8340;DHT22;4207;49.314;7.162;2023-05-29T12:58:07;23.00;69.80
8340;DHT22;4207;49.314;7.162;2023-05-29T13:00:39;23.10;69.00
8340;DHT22;4207;49.314;7.162;2023-05-29T13:03:08;23.10;70.90
8340;DHT22;4207;49.314;7.162;2023-05-29T13:05:38;23.10;69.00
8340;DHT22;4207;49.314;7.162;2023-05-29T13:08:06;23.20;70.00
8340;DHT22;4207;49.314;7.162;2023-05-29T13:10:35;23.10;66.90
8340;DHT22;4207;49.314;7.162;2023-05-29T13:13:03;23.10;69.00
8340;DHT22;4207;49.314;7.162;2023-05-29T13:15:33;23.10;71.20
8340;DHT22;4207;49.314;7.162;2023-05-29T13:18:01;23.10;69.80
8340;DHT22;4207;49.314;7.162;2023-05-29T13:20:29;23.20;70.90
8340;DHT22;4207;49.314;7.162;2023-05-29T13:22:59;23.20;73.50
8340;DHT22;4207;49.314;7.162;2023-05-29T13:25:27;23.20;71.50
8340;DHT22;4207;49.314;7.162;2023-05-29T13:27:55;23.20;70.70
8340;DHT22;4207;49.314;7.162;2023-05-29T13:30:24;23.20;73.90
8340;DHT22;4207;49.314;7.162;2023-05-29T13:32:54;23.30;72.10
8340;DHT22;4207;49.314;7.162;2023-05-29T13:35:22;23.40;74.10
8340;DHT22;4207;49.314;7.162;2023-05-29T13:37:50;23.30;73.70
8340;DHT22;4207;49.314;7.162;2023-05-29T13:40:18;23.30;72.60
8340;DHT22;4207;49.314;7.162;2023-05-29T13:42:47;23.30;71.90
8340;DHT22;4207;49.314;7.162;2023-05-29T13:45:15;23.30;74.70
8340;DHT22;4207;49.314;7.162;2023-05-29T13:47:43;23.40;71.90
8340;DHT22;4207;49.314;7.162;2023-05-29T13:50:13;23.30;70.80
8340;DHT22;4207;49.314;7.162;2023-05-29T13:52:41;23.40;74.00
8340;DHT22;4207;49.314;7.162;2023-05-29T13:55:09;23.40;72.00
8340;DHT22;4207;49.314;7.162;2023-05-29T13:57:37;23.40;71.30
8340;DHT22;4207;49.314;7.162;2023-05-29T14:00:07;23.40;70.00
8340;DHT22;4207;49.314;7.162;2023-05-29T14:02:36;23.40;72.50
8340;DHT22;4207;49.314;7.162;2023-05-29T14:05:06;23.50;73.70
8340;DHT22;4207;49.314;7.162;2023-05-29T14:07:35;23.50;72.20
8340;DHT22;4207;49.314;7.162;2023-05-29T14:10:05;23.50;70.50
8340;DHT22;4207;49.314;7.162;2023-05-29T14:12:33;23.50;71.30
8340;DHT22;4207;49.314;7.162;2023-05-29T14:15:01;23.50;71.30
8340;DHT22;4207;49.314;7.162;2023-05-29T14:17:30;23.60;73.50
8340;DHT22;4207;49.314;7.162;2023-05-29T14:19:58;23.60;69.50
8340;DHT22;4207;49.314;7.162;2023-05-29T14:22:29;23.60;68.00
8340;DHT22;4207;49.314;7.162;2023-05-29T14:25:01;23.50;69.00
8340;DHT22;4207;49.314;7.162;2023-05-29T14:27:30;23.50;69.00
8340;DHT22;4207;49.314;7.162;2023-05-29T14:29:59;23.50;68.20
8340;DHT22;4207;49.314;7.162;2023-05-29T14:32:28;23.50;70.20
8340;DHT22;4207;49.314;7.162;2023-05-29T14:34:56;23.50;66.90
8340;DHT22;4207;49.314;7.162;2023-05-29T14:37:24;23.50;65.70
8340;DHT22;4207;49.314;7.162;2023-05-29T14:39:53;23.50;67.80
8340;DHT22;4207;49.314;7.162;2023-05-29T14:42:22;23.60;69.50
8340;DHT22;4207;49.314;7.162;2023-05-29T14:44:50;23.60;66.80
8340;DHT22;4207;49.314;7.162;2023-05-29T14:47:19;23.70;68.20
8340;DHT22;4207;49.314;7.162;2023-05-29T14:49:47;23.70;64.60
8340;DHT22;4207;49.314;7.162;2023-05-29T14:52:15;23.70;65.80
8340;DHT22;4207;49.314;7.162;2023-05-29T14:54:43;23.70;64.60
8340;DHT22;4207;49.314;7.162;2023-05-29T14:57:11;23.70;64.60
8340;DHT22;4207;49.314;7.162;2023-05-29T14:59:40;23.60;65.70
8340;DHT22;4207;49.314;7.162;2023-05-29T15:02:09;23.70;63.10
8340;DHT22;4207;49.314;7.162;2023-05-29T15:04:37;23.60;62.90
8340;DHT22;4207;49.314;7.162;2023-05-29T15:07:05;23.60;64.30
8340;DHT22;4207;49.314;7.162;2023-05-29T15:09:34;23.60;65.60
8340;DHT22;4207;49.314;7.162;2023-05-29T15:12:03;23.60;64.30
8340;DHT22;4207;49.314;7.162;2023-05-29T15:14:34;23.60;65.60
8340;DHT22;4207;49.314;7.162;2023-05-29T15:17:04;23.60;64.80
8340;DHT22;4207;49.314;7.162;2023-05-29T15:19:33;23.60;62.50
8340;DHT22;4207;49.314;7.162;2023-05-29T15:22:01;23.60;64.60
8340;DHT22;4207;49.314;7.162;2023-05-29T15:24:29;23.60;62.60
8340;DHT22;4207;49.314;7.162;2023-05-29T15:26:58;23.60;61.90
8340;DHT22;4207;49.314;7.162;2023-05-29T15:29:31;23.60;64.10
8340;DHT22;4207;49.314;7.162;2023-05-29T15:32:00;23.60;66.30
8340;DHT22;4207;49.314;7.162;2023-05-29T15:34:30;23.70;64.50
8340;DHT22;4207;49.314;7.162;2023-05-29T15:37:00;23.70;64.00
8340;DHT22;4207;49.314;7.162;2023-05-29T15:39:29;23.70;62.90
8340;DHT22;4207;49.314;7.162;2023-05-29T15:41:57;23.70;64.20
8340;DHT22;4207;49.314;7.162;2023-05-29T15:44:25;23.70;62.90
8340;DHT22;4207;49.314;7.162;2023-05-29T15:46:53;23.70;63.60
8340;DHT22;4207;49.314;7.162;2023-05-29T15:49:22;23.60;63.10
8340;DHT22;4207;49.314;7.162;2023-05-29T15:51:51;23.60;63.40
8340;DHT22;4207;49.314;7.162;2023-05-29T15:54:19;23.60;61.50
8340;DHT22;4207;49.314;7.162;2023-05-29T15:56:47;23.60;61.30
8340;DHT22;4207;49.314;7.162;2023-05-29T15:59:15;23.60;63.10
8340;DHT22;4207;49.314;7.162;2023-05-29T16:01:44;23.60;61.20
8340;DHT22;4207;49.314;7.162;2023-05-29T16:04:13;23.60;63.00
8340;DHT22;4207;49.314;7.162;2023-05-29T16:06:41;23.60;61.70
8340;DHT22;4207;49.314;7.162;2023-05-29T16:09:11;23.60;60.50
8340;DHT22;4207;49.314;7.162;2023-05-29T16:11:40;23.70;61.90
8340;DHT22;4207;49.314;7.162;2023-05-29T16:14:08;23.70;63.20
8340;DHT22;4207;49.314;7.162;2023-05-29T16:16:36;23.70;63.10
8340;DHT22;4207;49.314;7.162;2023-05-29T16:19:05;23.70;63.10
8340;DHT22;4207;49.314;7.162;2023-05-29T16:21:34;23.70;63.30